sensor_id;sensor_type;location;lat;lon;timestamp;P1;durP1;ratioP1;P2;durP2;ratioP2
36715;SDS011;22699;51.034;3.730;2023-07-29T00:00:51;3.25;;;1.80;;
36715;SDS011;22699;51.034;3.730;2023-07-29T00:03:16;2.95;;;1.88;;
36715;SDS011;22699;51.034;3.730;2023-07-29T00:05:42;3.05;;;2.00;;
36715;SDS011;22699;51.034;3.730;2023-07-29T00:08:08;4.07;;;2.08;;
36715;SDS011;22699;51.034;3.730;2023-07-29T00:10:36;2.67;;;1.48;;
36715;SDS011;22699;51.034;3.730;2023-07-29T00:13:03;3.35;;;2.05;;
36715;SDS011;22699;51.034;3.730;2023-07-29T00:15:29;5.35;;;2.35;;
36715;SDS011;22699;51.034;3.730;2023-07-29T00:17:55;6.95;;;2.67;;
36715;SDS011;22699;51.034;3.730;2023-07-29T00:20:21;4.38;;;2.60;;
36715;SDS011;22699;51.034;3.730;2023-07-29T00:22:46;4.45;;;2.88;;
36715;SDS011;22699;51.034;3.730;2023-07-29T00:25:14;4.57;;;3.17;;
36715;SDS011;22699;51.034;3.730;2023-07-29T00:27:41;4.43;;;2.25;;
36715;SDS011;22699;51.034;3.730;2023-07-29T00:30:07;3.28;;;2.20;;
36715;SDS011;22699;51.034;3.730;2023-07-29T00:32:33;3.03;;;2.20;;
36715;SDS011;22699;51.034;3.730;2023-07-29T00:35:00;4.80;;;2.50;;
36715;SDS011;22699;51.034;3.730;2023-07-29T00:37:26;2.80;;;2.05;;
36715;SDS011;22699;51.034;3.730;2023-07-29T00:39:53;4.85;;;2.33;;
36715;SDS011;22699;51.034;3.730;2023-07-29T00:42:18;3.13;;;2.10;;
36715;SDS011;22699;51.034;3.730;2023-07-29T00:44:44;4.32;;;2.33;;
36715;SDS011;22699;51.034;3.730;2023-07-29T00:47:10;4.82;;;1.98;;
36715;SDS011;22699;51.034;3.730;2023-07-29T00:49:38;2.92;;;2.20;;
36715;SDS011;22699;51.034;3.730;2023-07-29T00:52:04;2.45;;;1.92;;
36715;SDS011;22699;51.034;3.730;2023-07-29T00:54:30;5.22;;;1.95;;
36715;SDS011;22699;51.034;3.730;2023-07-29T00:56:55;5.63;;;2.15;;
36715;SDS011;22699;51.034;3.730;2023-07-29T00:59:21;3.50;;;2.30;;
36715;SDS011;22699;51.034;3.730;2023-07-29T01:01:48;4.50;;;2.38;;
36715;SDS011;22699;51.034;3.730;2023-07-29T01:04:13;2.83;;;1.67;;
36715;SDS011;22699;51.034;3.730;2023-07-29T01:09:25;2.10;;;1.85;;
36715;SDS011;22699;51.034;3.730;2023-07-29T01:15:32;6.35;;;2.03;;
36715;SDS011;22699;51.034;3.730;2023-07-29T01:18:05;6.28;;;2.80;;
36715;SDS011;22699;51.034;3.730;2023-07-29T01:20:35;4.15;;;2.70;;
36715;SDS011;22699;51.034;3.730;2023-07-29T01:23:03;5.60;;;2.80;;
36715;SDS011;22699;51.034;3.730;2023-07-29T01:25:29;4.63;;;2.50;;
36715;SDS011;22699;51.034;3.730;2023-07-29T01:27:55;5.30;;;2.90;;
36715;SDS011;22699;51.034;3.730;2023-07-29T01:30:21;6.80;;;2.85;;
36715;SDS011;22699;51.034;3.730;2023-07-29T01:35:33;4.05;;;2.90;;
36715;SDS011;22699;51.034;3.730;2023-07-29T01:38:13;4.22;;;2.95;;
36715;SDS011;22699;51.034;3.730;2023-07-29T01:40:43;6.47;;;2.60;;
36715;SDS011;22699;51.034;3.730;2023-07-29T01:43:09;4.43;;;2.80;;
36715;SDS011;22699;51.034;3.730;2023-07-29T01:45:36;3.58;;;3.05;;
36715;SDS011;22699;51.034;3.730;2023-07-29T01:48:04;5.28;;;2.80;;
36715;SDS011;22699;51.034;3.730;2023-07-29T01:50:30;5.30;;;2.75;;
36715;SDS011;22699;51.034;3.730;2023-07-29T01:52:57;4.43;;;2.78;;
36715;SDS011;22699;51.034;3.730;2023-07-29T01:55:23;6.10;;;3.30;;
36715;SDS011;22699;51.034;3.730;2023-07-29T01:57:48;7.50;;;2.97;;
36715;SDS011;22699;51.034;3.730;2023-07-29T02:00:15;4.95;;;2.53;;
36715;SDS011;22699;51.034;3.730;2023-07-29T02:02:41;3.88;;;2.60;;
36715;SDS011;22699;51.034;3.730;2023-07-29T02:05:06;4.28;;;2.40;;
36715;SDS011;22699;51.034;3.730;2023-07-29T02:07:32;4.07;;;2.92;;
36715;SDS011;22699;51.034;3.730;2023-07-29T02:09:58;4.13;;;2.75;;
36715;SDS011;22699;51.034;3.730;2023-07-29T02:12:24;3.97;;;2.95;;
36715;SDS011;22699;51.034;3.730;2023-07-29T02:14:49;4.90;;;2.92;;
36715;SDS011;22699;51.034;3.730;2023-07-29T02:17:15;5.18;;;2.55;;
36715;SDS011;22699;51.034;3.730;2023-07-29T02:19:41;3.17;;;2.75;;
36715;SDS011;22699;51.034;3.730;2023-07-29T02:22:06;6.32;;;2.95;;
36715;SDS011;22699;51.034;3.730;2023-07-29T02:24:32;4.70;;;3.45;;
36715;SDS011;22699;51.034;3.730;2023-07-29T02:26:57;4.57;;;2.80;;
36715;SDS011;22699;51.034;3.730;2023-07-29T02:29:23;6.00;;;2.78;;
36715;SDS011;22699;51.034;3.730;2023-07-29T02:31:50;3.00;;;2.63;;
36715;SDS011;22699;51.034;3.730;2023-07-29T02:34:15;4.22;;;2.72;;
36715;SDS011;22699;51.034;3.730;2023-07-29T02:36:41;3.90;;;2.90;;
36715;SDS011;22699;51.034;3.730;2023-07-29T02:39:07;6.10;;;2.97;;
36715;SDS011;22699;51.034;3.730;2023-07-29T02:41:33;4.95;;;2.65;;
36715;SDS011;22699;51.034;3.730;2023-07-29T02:43:58;5.18;;;2.63;;
36715;SDS011;22699;51.034;3.730;2023-07-29T02:46:24;3.67;;;2.40;;
36715;SDS011;22699;51.034;3.730;2023-07-29T02:48:50;3.53;;;2.30;;
36715;SDS011;22699;51.034;3.730;2023-07-29T02:51:15;3.63;;;2.45;;
36715;SDS011;22699;51.034;3.730;2023-07-29T02:53:41;2.92;;;2.38;;
36715;SDS011;22699;51.034;3.730;2023-07-29T02:56:07;3.00;;;2.47;;
36715;SDS011;22699;51.034;3.730;2023-07-29T02:58:35;4.72;;;2.60;;
36715;SDS011;22699;51.034;3.730;2023-07-29T03:01:02;3.90;;;2.60;;
36715;SDS011;22699;51.034;3.730;2023-07-29T03:03:28;4.45;;;2.35;;
36715;SDS011;22699;51.034;3.730;2023-07-29T03:05:59;3.30;;;2.22;;
36715;SDS011;22699;51.034;3.730;2023-07-29T03:08:26;3.85;;;2.45;;
36715;SDS011;22699;51.034;3.730;2023-07-29T03:10:52;2.75;;;2.00;;
36715;SDS011;22699;51.034;3.730;2023-07-29T03:13:19;4.47;;;2.35;;
36715;SDS011;22699;51.034;3.730;2023-07-29T03:15:44;2.78;;;2.17;;
36715;SDS011;22699;51.034;3.730;2023-07-29T03:18:10;4.55;;;2.40;;
36715;SDS011;22699;51.034;3.730;2023-07-29T03:20:35;3.22;;;2.25;;
36715;SDS011;22699;51.034;3.730;2023-07-29T03:23:01;3.80;;;2.47;;
36715;SDS011;22699;51.034;3.730;2023-07-29T03:25:28;4.05;;;2.53;;
36715;SDS011;22699;51.034;3.730;2023-07-29T03:27:54;5.88;;;3.13;;
36715;SDS011;22699;51.034;3.730;2023-07-29T03:30:20;3.65;;;2.88;;
36715;SDS011;22699;51.034;3.730;2023-07-29T03:32:47;4.97;;;2.80;;
36715;SDS011;22699;51.034;3.730;2023-07-29T03:35:13;5.40;;;2.95;;
36715;SDS011;22699;51.034;3.730;2023-07-29T03:37:39;4.35;;;2.80;;
36715;SDS011;22699;51.034;3.730;2023-07-29T03:40:06;3.83;;;3.22;;
36715;SDS011;22699;51.034;3.730;2023-07-29T03:42:32;5.57;;;3.13;;
36715;SDS011;22699;51.034;3.730;2023-07-29T03:44:58;5.75;;;3.17;;
36715;SDS011;22699;51.034;3.730;2023-07-29T03:47:24;3.80;;;2.88;;
36715;SDS011;22699;51.034;3.730;2023-07-29T03:49:49;5.38;;;3.03;;
36715;SDS011;22699;51.034;3.730;2023-07-29T03:52:15;5.18;;;3.20;;
36715;SDS011;22699;51.034;3.730;2023-07-29T03:54:41;8.48;;;3.72;;
36715;SDS011;22699;51.034;3.730;2023-07-29T03:57:06;5.25;;;3.28;;
36715;SDS011;22699;51.034;3.730;2023-07-29T03:59:32;5.57;;;2.95;;
36715;SDS011;22699;51.034;3.730;2023-07-29T04:01:58;4.32;;;2.80;;
36715;SDS011;22699;51.034;3.730;2023-07-29T04:04:24;6.38;;;3.20;;
36715;SDS011;22699;51.034;3.730;2023-07-29T04:06:49;3.47;;;3.10;;
36715;SDS011;22699;51.034;3.730;2023-07-29T04:09:15;6.50;;;3.30;;
36715;SDS011;22699;51.034;3.730;2023-07-29T04:11:40;4.78;;;2.97;;
36715;SDS011;22699;51.034;3.730;2023-07-29T04:14:07;7.57;;;3.55;;
36715;SDS011;22699;51.034;3.730;2023-07-29T04:16:33;5.10;;;2.58;;
36715;SDS011;22699;51.034;3.730;2023-07-29T04:18:58;5.93;;;2.78;;
36715;SDS011;22699;51.034;3.730;2023-07-29T04:21:25;4.20;;;2.83;;
36715;SDS011;22699;51.034;3.730;2023-07-29T04:23:51;4.25;;;3.25;;
36715;SDS011;22699;51.034;3.730;2023-07-29T04:26:16;7.82;;;3.45;;
36715;SDS011;22699;51.034;3.730;2023-07-29T04:28:42;5.10;;;3.13;;
36715;SDS011;22699;51.034;3.730;2023-07-29T04:31:08;3.50;;;2.83;;
36715;SDS011;22699;51.034;3.730;2023-07-29T04:33:33;4.95;;;2.60;;
36715;SDS011;22699;51.034;3.730;2023-07-29T04:35:59;3.08;;;2.25;;
36715;SDS011;22699;51.034;3.730;2023-07-29T04:38:29;2.97;;;2.60;;
36715;SDS011;22699;51.034;3.730;2023-07-29T04:41:00;8.25;;;2.95;;
36715;SDS011;22699;51.034;3.730;2023-07-29T04:43:30;5.97;;;2.65;;
36715;SDS011;22699;51.034;3.730;2023-07-29T04:45:56;6.35;;;2.88;;
36715;SDS011;22699;51.034;3.730;2023-07-29T04:48:24;5.28;;;2.30;;
36715;SDS011;22699;51.034;3.730;2023-07-29T04:50:50;8.30;;;2.83;;
36715;SDS011;22699;51.034;3.730;2023-07-29T04:53:15;3.88;;;2.35;;
36715;SDS011;22699;51.034;3.730;2023-07-29T04:55:41;4.07;;;2.38;;
36715;SDS011;22699;51.034;3.730;2023-07-29T04:58:08;6.40;;;2.40;;
36715;SDS011;22699;51.034;3.730;2023-07-29T05:00:34;5.35;;;2.50;;
36715;SDS011;22699;51.034;3.730;2023-07-29T05:02:59;3.72;;;2.22;;
36715;SDS011;22699;51.034;3.730;2023-07-29T05:05:26;2.88;;;2.00;;
36715;SDS011;22699;51.034;3.730;2023-07-29T05:07:52;3.65;;;2.15;;
36715;SDS011;22699;51.034;3.730;2023-07-29T05:10:17;3.75;;;2.10;;
36715;SDS011;22699;51.034;3.730;2023-07-29T05:12:43;4.15;;;2.85;;
36715;SDS011;22699;51.034;3.730;2023-07-29T05:15:09;4.03;;;2.10;;
36715;SDS011;22699;51.034;3.730;2023-07-29T05:17:35;3.80;;;2.10;;
36715;SDS011;22699;51.034;3.730;2023-07-29T05:20:01;5.35;;;2.15;;
36715;SDS011;22699;51.034;3.730;2023-07-29T05:22:27;6.68;;;2.40;;
36715;SDS011;22699;51.034;3.730;2023-07-29T05:24:53;3.92;;;2.20;;
36715;SDS011;22699;51.034;3.730;2023-07-29T05:27:19;2.97;;;1.90;;
36715;SDS011;22699;51.034;3.730;2023-07-29T05:29:44;4.50;;;2.10;;
36715;SDS011;22699;51.034;3.730;2023-07-29T05:32:10;3.05;;;1.90;;
36715;SDS011;22699;51.034;3.730;2023-07-29T05:34:37;3.28;;;2.20;;
36715;SDS011;22699;51.034;3.730;2023-07-29T05:37:02;4.68;;;1.90;;
36715;SDS011;22699;51.034;3.730;2023-07-29T05:39:28;3.22;;;1.80;;
36715;SDS011;22699;51.034;3.730;2023-07-29T05:41:54;3.88;;;1.70;;
36715;SDS011;22699;51.034;3.730;2023-07-29T05:44:20;3.42;;;2.03;;
36715;SDS011;22699;51.034;3.730;2023-07-29T05:46:45;4.35;;;1.80;;
36715;SDS011;22699;51.034;3.730;2023-07-29T05:49:11;6.40;;;2.13;;
36715;SDS011;22699;51.034;3.730;2023-07-29T05:51:37;3.65;;;1.80;;
36715;SDS011;22699;51.034;3.730;2023-07-29T05:54:03;2.85;;;2.13;;
36715;SDS011;22699;51.034;3.730;2023-07-29T05:56:29;2.33;;;1.38;;
36715;SDS011;22699;51.034;3.730;2023-07-29T05:58:56;4.78;;;1.75;;
36715;SDS011;22699;51.034;3.730;2023-07-29T06:01:22;4.05;;;1.75;;
36715;SDS011;22699;51.034;3.730;2023-07-29T06:03:48;2.30;;;1.40;;
36715;SDS011;22699;51.034;3.730;2023-07-29T06:06:13;2.97;;;1.63;;
36715;SDS011;22699;51.034;3.730;2023-07-29T06:08:39;3.03;;;1.65;;
36715;SDS011;22699;51.034;3.730;2023-07-29T06:11:05;3.03;;;1.65;;
36715;SDS011;22699;51.034;3.730;2023-07-29T06:13:31;4.47;;;1.67;;
36715;SDS011;22699;51.034;3.730;2023-07-29T06:15:57;4.10;;;1.38;;
36715;SDS011;22699;51.034;3.730;2023-07-29T06:18:23;3.40;;;1.52;;
36715;SDS011;22699;51.034;3.730;2023-07-29T06:20:49;1.40;;;1.30;;
36715;SDS011;22699;51.034;3.730;2023-07-29T06:23:15;2.15;;;1.35;;
36715;SDS011;22699;51.034;3.730;2023-07-29T06:25:40;1.92;;;1.40;;
36715;SDS011;22699;51.034;3.730;2023-07-29T06:28:06;2.50;;;1.40;;
36715;SDS011;22699;51.034;3.730;2023-07-29T06:30:32;3.38;;;1.75;;
36715;SDS011;22699;51.034;3.730;2023-07-29T06:32:57;3.28;;;1.73;;
36715;SDS011;22699;51.034;3.730;2023-07-29T06:35:23;3.05;;;1.50;;
36715;SDS011;22699;51.034;3.730;2023-07-29T06:37:49;1.70;;;1.40;;
36715;SDS011;22699;51.034;3.730;2023-07-29T06:40:15;3.70;;;1.67;;
36715;SDS011;22699;51.034;3.730;2023-07-29T06:42:41;2.00;;;1.38;;
36715;SDS011;22699;51.034;3.730;2023-07-29T06:45:07;1.92;;;1.75;;
36715;SDS011;22699;51.034;3.730;2023-07-29T06:47:33;2.83;;;1.60;;
36715;SDS011;22699;51.034;3.730;2023-07-29T06:49:58;2.85;;;1.73;;
36715;SDS011;22699;51.034;3.730;2023-07-29T06:52:24;2.40;;;1.20;;
36715;SDS011;22699;51.034;3.730;2023-07-29T06:54:50;2.33;;;1.45;;
36715;SDS011;22699;51.034;3.730;2023-07-29T06:57:15;2.60;;;1.48;;
36715;SDS011;22699;51.034;3.730;2023-07-29T06:59:41;4.68;;;1.58;;
36715;SDS011;22699;51.034;3.730;2023-07-29T07:02:07;3.45;;;1.27;;
36715;SDS011;22699;51.034;3.730;2023-07-29T07:04:32;2.08;;;1.38;;
36715;SDS011;22699;51.034;3.730;2023-07-29T07:06:58;2.30;;;1.40;;
36715;SDS011;22699;51.034;3.730;2023-07-29T07:09:24;3.17;;;1.15;;
36715;SDS011;22699;51.034;3.730;2023-07-29T07:11:49;4.13;;;1.52;;
36715;SDS011;22699;51.034;3.730;2023-07-29T07:14:15;2.80;;;1.33;;
36715;SDS011;22699;51.034;3.730;2023-07-29T07:16:40;3.05;;;1.40;;
36715;SDS011;22699;51.034;3.730;2023-07-29T07:19:06;2.90;;;1.65;;
36715;SDS011;22699;51.034;3.730;2023-07-29T07:21:32;1.52;;;1.10;;
36715;SDS011;22699;51.034;3.730;2023-07-29T07:23:57;3.22;;;1.55;;
36715;SDS011;22699;51.034;3.730;2023-07-29T07:26:23;2.33;;;1.00;;
36715;SDS011;22699;51.034;3.730;2023-07-29T07:28:49;2.83;;;1.48;;
36715;SDS011;22699;51.034;3.730;2023-07-29T07:31:16;3.65;;;1.35;;
36715;SDS011;22699;51.034;3.730;2023-07-29T07:33:42;1.30;;;0.98;;
36715;SDS011;22699;51.034;3.730;2023-07-29T07:36:09;1.77;;;1.20;;
36715;SDS011;22699;51.034;3.730;2023-07-29T07:38:38;2.53;;;1.50;;
36715;SDS011;22699;51.034;3.730;2023-07-29T07:41:06;3.10;;;1.05;;
36715;SDS011;22699;51.034;3.730;2023-07-29T07:43:31;2.00;;;1.08;;
36715;SDS011;22699;51.034;3.730;2023-07-29T07:45:57;2.10;;;1.20;;
36715;SDS011;22699;51.034;3.730;2023-07-29T07:48:26;2.30;;;1.10;;
36715;SDS011;22699;51.034;3.730;2023-07-29T07:53:20;2.70;;;1.00;;
36715;SDS011;22699;51.034;3.730;2023-07-29T07:55:46;1.38;;;0.68;;
36715;SDS011;22699;51.034;3.730;2023-07-29T07:58:13;1.50;;;0.85;;
36715;SDS011;22699;51.034;3.730;2023-07-29T08:00:39;2.92;;;1.00;;
36715;SDS011;22699;51.034;3.730;2023-07-29T08:03:05;3.80;;;0.70;;
36715;SDS011;22699;51.034;3.730;2023-07-29T08:05:31;1.60;;;0.88;;
36715;SDS011;22699;51.034;3.730;2023-07-29T08:07:57;2.60;;;1.00;;
36715;SDS011;22699;51.034;3.730;2023-07-29T08:10:22;1.85;;;0.88;;
36715;SDS011;22699;51.034;3.730;2023-07-29T08:12:48;3.38;;;1.13;;
36715;SDS011;22699;51.034;3.730;2023-07-29T08:15:15;1.65;;;0.90;;
36715;SDS011;22699;51.034;3.730;2023-07-29T08:17:41;3.75;;;1.20;;
36715;SDS011;22699;51.034;3.730;2023-07-29T08:20:08;2.47;;;1.10;;
36715;SDS011;22699;51.034;3.730;2023-07-29T08:22:34;1.20;;;0.80;;
36715;SDS011;22699;51.034;3.730;2023-07-29T08:25:00;3.50;;;1.13;;
36715;SDS011;22699;51.034;3.730;2023-07-29T08:27:26;1.80;;;1.30;;
36715;SDS011;22699;51.034;3.730;2023-07-29T08:29:54;2.25;;;1.27;;
36715;SDS011;22699;51.034;3.730;2023-07-29T08:32:20;1.63;;;1.00;;
36715;SDS011;22699;51.034;3.730;2023-07-29T08:34:47;2.25;;;1.60;;
36715;SDS011;22699;51.034;3.730;2023-07-29T08:37:13;1.60;;;1.23;;
36715;SDS011;22699;51.034;3.730;2023-07-29T08:39:39;2.28;;;1.00;;
36715;SDS011;22699;51.034;3.730;2023-07-29T08:42:07;3.65;;;1.40;;
36715;SDS011;22699;51.034;3.730;2023-07-29T08:44:40;1.83;;;1.42;;
36715;SDS011;22699;51.034;3.730;2023-07-29T08:47:11;2.78;;;1.42;;
36715;SDS011;22699;51.034;3.730;2023-07-29T08:49:38;3.22;;;1.48;;
36715;SDS011;22699;51.034;3.730;2023-07-29T08:52:05;2.70;;;1.52;;
36715;SDS011;22699;51.034;3.730;2023-07-29T08:54:33;2.75;;;1.52;;
36715;SDS011;22699;51.034;3.730;2023-07-29T08:56:59;2.40;;;1.50;;
36715;SDS011;22699;51.034;3.730;2023-07-29T08:59:25;2.63;;;1.67;;
36715;SDS011;22699;51.034;3.730;2023-07-29T09:01:53;2.55;;;1.60;;
36715;SDS011;22699;51.034;3.730;2023-07-29T09:04:22;2.25;;;1.50;;
36715;SDS011;22699;51.034;3.730;2023-07-29T09:06:50;3.53;;;1.40;;
36715;SDS011;22699;51.034;3.730;2023-07-29T09:09:17;2.92;;;1.80;;
36715;SDS011;22699;51.034;3.730;2023-07-29T09:11:43;2.63;;;1.25;;
36715;SDS011;22699;51.034;3.730;2023-07-29T09:14:10;1.67;;;1.45;;
36715;SDS011;22699;51.034;3.730;2023-07-29T09:16:38;2.70;;;1.40;;
36715;SDS011;22699;51.034;3.730;2023-07-29T09:19:03;2.45;;;1.35;;
36715;SDS011;22699;51.034;3.730;2023-07-29T09:21:29;1.70;;;1.45;;
36715;SDS011;22699;51.034;3.730;2023-07-29T09:23:56;3.80;;;1.58;;
36715;SDS011;22699;51.034;3.730;2023-07-29T09:26:25;2.40;;;1.30;;
36715;SDS011;22699;51.034;3.730;2023-07-29T09:28:52;1.70;;;1.20;;
36715;SDS011;22699;51.034;3.730;2023-07-29T09:31:23;4.65;;;1.40;;
36715;SDS011;22699;51.034;3.730;2023-07-29T09:33:59;3.40;;;1.35;;
36715;SDS011;22699;51.034;3.730;2023-07-29T09:36:27;4.53;;;2.00;;
36715;SDS011;22699;51.034;3.730;2023-07-29T09:38:55;3.25;;;1.50;;
36715;SDS011;22699;51.034;3.730;2023-07-29T09:41:22;3.25;;;1.42;;
36715;SDS011;22699;51.034;3.730;2023-07-29T09:43:51;3.97;;;1.70;;
36715;SDS011;22699;51.034;3.730;2023-07-29T09:46:22;3.28;;;1.50;;
36715;SDS011;22699;51.034;3.730;2023-07-29T09:48:48;3.83;;;1.35;;
36715;SDS011;22699;51.034;3.730;2023-07-29T09:51:16;3.30;;;1.70;;
36715;SDS011;22699;51.034;3.730;2023-07-29T09:53:43;3.35;;;1.63;;
36715;SDS011;22699;51.034;3.730;2023-07-29T09:56:10;3.63;;;1.70;;
36715;SDS011;22699;51.034;3.730;2023-07-29T09:58:35;2.10;;;1.50;;
36715;SDS011;22699;51.034;3.730;2023-07-29T10:01:03;2.72;;;1.80;;
36715;SDS011;22699;51.034;3.730;2023-07-29T10:03:30;3.45;;;1.73;;
36715;SDS011;22699;51.034;3.730;2023-07-29T10:05:59;2.88;;;1.60;;
36715;SDS011;22699;51.034;3.730;2023-07-29T10:08:31;3.92;;;1.92;;
36715;SDS011;22699;51.034;3.730;2023-07-29T10:11:00;2.03;;;1.75;;
36715;SDS011;22699;51.034;3.730;2023-07-29T10:13:27;3.67;;;2.13;;
36715;SDS011;22699;51.034;3.730;2023-07-29T10:15:53;5.13;;;2.38;;
36715;SDS011;22699;51.034;3.730;2023-07-29T10:18:21;4.65;;;2.95;;
36715;SDS011;22699;51.034;3.730;2023-07-29T10:20:48;5.30;;;3.05;;
36715;SDS011;22699;51.034;3.730;2023-07-29T10:23:16;4.47;;;2.53;;
36715;SDS011;22699;51.034;3.730;2023-07-29T10:25:46;3.00;;;2.30;;
36715;SDS011;22699;51.034;3.730;2023-07-29T10:28:14;5.35;;;2.60;;
36715;SDS011;22699;51.034;3.730;2023-07-29T10:30:41;5.60;;;2.35;;
36715;SDS011;22699;51.034;3.730;2023-07-29T10:33:07;6.07;;;2.25;;
36715;SDS011;22699;51.034;3.730;2023-07-29T10:35:33;3.88;;;2.15;;
36715;SDS011;22699;51.034;3.730;2023-07-29T10:37:59;3.15;;;1.70;;
36715;SDS011;22699;51.034;3.730;2023-07-29T10:40:26;2.70;;;1.55;;
36715;SDS011;22699;51.034;3.730;2023-07-29T10:43:11;3.50;;;2.08;;
36715;SDS011;22699;51.034;3.730;2023-07-29T10:45:41;2.70;;;1.80;;
36715;SDS011;22699;51.034;3.730;2023-07-29T10:48:13;2.30;;;1.90;;
36715;SDS011;22699;51.034;3.730;2023-07-29T10:51:42;4.57;;;3.75;;
36715;SDS011;22699;51.034;3.730;2023-07-29T10:53:58;5.47;;;3.78;;
36715;SDS011;22699;51.034;3.730;2023-07-29T10:56:32;4.90;;;3.50;;
36715;SDS011;22699;51.034;3.730;2023-07-29T11:01:54;3.47;;;1.77;;
36715;SDS011;22699;51.034;3.730;2023-07-29T11:04:31;3.78;;;1.50;;
36715;SDS011;22699;51.034;3.730;2023-07-29T11:15:26;1.52;;;1.27;;
36715;SDS011;22699;51.034;3.730;2023-07-29T11:17:59;1.92;;;1.13;;
36715;SDS011;22699;51.034;3.730;2023-07-29T11:20:32;2.22;;;1.27;;
36715;SDS011;22699;51.034;3.730;2023-07-29T11:22:59;2.00;;;1.40;;
36715;SDS011;22699;51.034;3.730;2023-07-29T11:25:27;4.18;;;1.15;;
36715;SDS011;22699;51.034;3.730;2023-07-29T11:27:55;1.40;;;1.00;;
36715;SDS011;22699;51.034;3.730;2023-07-29T11:30:22;1.75;;;1.20;;
36715;SDS011;22699;51.034;3.730;2023-07-29T11:32:48;2.63;;;1.73;;
36715;SDS011;22699;51.034;3.730;2023-07-29T11:35:15;3.38;;;1.38;;
36715;SDS011;22699;51.034;3.730;2023-07-29T11:37:43;4.45;;;1.10;;
36715;SDS011;22699;51.034;3.730;2023-07-29T11:40:13;1.95;;;1.50;;
36715;SDS011;22699;51.034;3.730;2023-07-29T11:45:06;5.20;;;1.40;;
36715;SDS011;22699;51.034;3.730;2023-07-29T11:47:33;1.63;;;1.42;;
36715;SDS011;22699;51.034;3.730;2023-07-29T11:50:05;2.05;;;1.60;;
36715;SDS011;22699;51.034;3.730;2023-07-29T11:52:36;3.35;;;1.45;;
36715;SDS011;22699;51.034;3.730;2023-07-29T11:55:03;3.53;;;1.50;;
36715;SDS011;22699;51.034;3.730;2023-07-29T11:57:31;2.88;;;1.63;;
36715;SDS011;22699;51.034;3.730;2023-07-29T12:00:03;2.60;;;1.50;;
36715;SDS011;22699;51.034;3.730;2023-07-29T12:02:31;2.58;;;1.48;;
36715;SDS011;22699;51.034;3.730;2023-07-29T12:04:58;3.30;;;1.60;;
36715;SDS011;22699;51.034;3.730;2023-07-29T12:07:24;2.78;;;1.25;;
36715;SDS011;22699;51.034;3.730;2023-07-29T12:09:52;2.50;;;1.05;;
36715;SDS011;22699;51.034;3.730;2023-07-29T12:12:17;2.13;;;1.25;;
36715;SDS011;22699;51.034;3.730;2023-07-29T12:14:44;2.78;;;1.23;;
36715;SDS011;22699;51.034;3.730;2023-07-29T12:17:12;2.65;;;1.27;;
36715;SDS011;22699;51.034;3.730;2023-07-29T12:19:39;1.25;;;0.90;;
36715;SDS011;22699;51.034;3.730;2023-07-29T12:22:06;2.35;;;0.88;;
36715;SDS011;22699;51.034;3.730;2023-07-29T12:24:35;2.60;;;1.15;;
36715;SDS011;22699;51.034;3.730;2023-07-29T12:27:02;2.60;;;0.95;;
36715;SDS011;22699;51.034;3.730;2023-07-29T12:29:27;1.70;;;1.20;;
36715;SDS011;22699;51.034;3.730;2023-07-29T12:32:01;2.00;;;1.17;;
36715;SDS011;22699;51.034;3.730;2023-07-29T12:34:29;2.17;;;0.90;;
36715;SDS011;22699;51.034;3.730;2023-07-29T12:36:57;2.45;;;1.17;;
36715;SDS011;22699;51.034;3.730;2023-07-29T12:39:28;2.45;;;1.00;;
36715;SDS011;22699;51.034;3.730;2023-07-29T12:41:55;1.70;;;1.20;;
36715;SDS011;22699;51.034;3.730;2023-07-29T12:44:23;4.15;;;1.38;;
36715;SDS011;22699;51.034;3.730;2023-07-29T12:46:49;2.53;;;0.98;;
36715;SDS011;22699;51.034;3.730;2023-07-29T12:49:15;1.52;;;1.00;;
36715;SDS011;22699;51.034;3.730;2023-07-29T12:51:41;2.72;;;1.00;;
36715;SDS011;22699;51.034;3.730;2023-07-29T12:54:07;4.10;;;1.05;;
36715;SDS011;22699;51.034;3.730;2023-07-29T12:56:33;2.03;;;1.13;;
36715;SDS011;22699;51.034;3.730;2023-07-29T12:58:59;1.45;;;1.08;;
36715;SDS011;22699;51.034;3.730;2023-07-29T13:01:25;2.90;;;1.10;;
36715;SDS011;22699;51.034;3.730;2023-07-29T13:03:52;1.70;;;1.20;;
36715;SDS011;22699;51.034;3.730;2023-07-29T13:06:17;3.85;;;1.15;;
36715;SDS011;22699;51.034;3.730;2023-07-29T13:08:44;2.75;;;1.10;;
36715;SDS011;22699;51.034;3.730;2023-07-29T13:11:10;2.03;;;0.95;;
36715;SDS011;22699;51.034;3.730;2023-07-29T13:13:36;1.40;;;0.80;;
36715;SDS011;22699;51.034;3.730;2023-07-29T13:16:02;1.15;;;0.82;;
36715;SDS011;22699;51.034;3.730;2023-07-29T13:18:27;1.15;;;0.80;;
36715;SDS011;22699;51.034;3.730;2023-07-29T13:20:53;1.13;;;0.80;;
36715;SDS011;22699;51.034;3.730;2023-07-29T13:23:19;2.17;;;1.08;;
36715;SDS011;22699;51.034;3.730;2023-07-29T13:25:45;1.77;;;0.70;;
36715;SDS011;22699;51.034;3.730;2023-07-29T13:28:10;0.98;;;0.80;;
36715;SDS011;22699;51.034;3.730;2023-07-29T13:30:38;2.15;;;0.80;;
36715;SDS011;22699;51.034;3.730;2023-07-29T13:33:06;3.88;;;1.10;;
36715;SDS011;22699;51.034;3.730;2023-07-29T13:35:33;4.40;;;1.88;;
36715;SDS011;22699;51.034;3.730;2023-07-29T13:37:58;1.52;;;1.02;;
36715;SDS011;22699;51.034;3.730;2023-07-29T13:40:24;3.67;;;1.20;;
36715;SDS011;22699;51.034;3.730;2023-07-29T13:42:50;3.10;;;1.60;;
36715;SDS011;22699;51.034;3.730;2023-07-29T13:45:16;1.70;;;1.30;;
36715;SDS011;22699;51.034;3.730;2023-07-29T13:47:42;5.47;;;1.63;;
36715;SDS011;22699;51.034;3.730;2023-07-29T13:50:08;2.28;;;1.55;;
36715;SDS011;22699;51.034;3.730;2023-07-29T13:52:35;1.77;;;1.30;;
36715;SDS011;22699;51.034;3.730;2023-07-29T13:55:02;3.50;;;1.60;;
36715;SDS011;22699;51.034;3.730;2023-07-29T13:57:28;2.80;;;1.30;;
36715;SDS011;22699;51.034;3.730;2023-07-29T13:59:54;4.28;;;1.05;;
36715;SDS011;22699;51.034;3.730;2023-07-29T14:04:48;2.17;;;0.90;;
36715;SDS011;22699;51.034;3.730;2023-07-29T14:07:14;0.88;;;0.85;;
36715;SDS011;22699;51.034;3.730;2023-07-29T14:09:40;2.35;;;1.20;;
36715;SDS011;22699;51.034;3.730;2023-07-29T14:12:08;3.30;;;0.90;;
36715;SDS011;22699;51.034;3.730;2023-07-29T14:14:37;1.33;;;0.90;;
36715;SDS011;22699;51.034;3.730;2023-07-29T14:17:03;1.10;;;0.60;;
36715;SDS011;22699;51.034;3.730;2023-07-29T14:19:34;1.20;;;0.60;;
36715;SDS011;22699;51.034;3.730;2023-07-29T14:22:00;0.80;;;0.60;;
36715;SDS011;22699;51.034;3.730;2023-07-29T14:24:26;1.90;;;0.80;;
36715;SDS011;22699;51.034;3.730;2023-07-29T14:26:52;0.80;;;0.60;;
36715;SDS011;22699;51.034;3.730;2023-07-29T14:29:17;2.00;;;0.70;;
36715;SDS011;22699;51.034;3.730;2023-07-29T14:31:43;0.70;;;0.60;;
36715;SDS011;22699;51.034;3.730;2023-07-29T14:34:09;0.60;;;0.60;;
36715;SDS011;22699;51.034;3.730;2023-07-29T14:36:35;0.98;;;0.60;;
36715;SDS011;22699;51.034;3.730;2023-07-29T14:39:01;1.25;;;0.70;;
36715;SDS011;22699;51.034;3.730;2023-07-29T14:41:27;2.25;;;0.60;;
36715;SDS011;22699;51.034;3.730;2023-07-29T14:43:52;0.88;;;0.60;;
36715;SDS011;22699;51.034;3.730;2023-07-29T14:46:19;1.85;;;0.50;;
36715;SDS011;22699;51.034;3.730;2023-07-29T14:48:45;0.73;;;0.65;;
36715;SDS011;22699;51.034;3.730;2023-07-29T14:51:12;1.20;;;0.65;;
36715;SDS011;22699;51.034;3.730;2023-07-29T14:53:37;3.00;;;0.60;;
36715;SDS011;22699;51.034;3.730;2023-07-29T14:56:03;1.15;;;0.50;;
36715;SDS011;22699;51.034;3.730;2023-07-29T14:58:29;1.90;;;0.47;;
36715;SDS011;22699;51.034;3.730;2023-07-29T15:00:55;1.30;;;0.68;;
36715;SDS011;22699;51.034;3.730;2023-07-29T15:03:20;1.02;;;0.70;;
36715;SDS011;22699;51.034;3.730;2023-07-29T15:05:46;1.58;;;0.88;;
36715;SDS011;22699;51.034;3.730;2023-07-29T15:08:12;1.95;;;0.80;;
36715;SDS011;22699;51.034;3.730;2023-07-29T15:10:38;1.38;;;0.70;;
36715;SDS011;22699;51.034;3.730;2023-07-29T15:13:03;1.20;;;0.70;;